Millenium Air

Millenium Air Since 1998



 METAR AND TAF INFORMATION
METAR FOR LPPR
ADDS - METARS form results

(2355 UTC 26 February 2021)
Data provider http://aviationweather.gov/metar/data/
 
METAR text: LPPR 262330Z 07003KT 030V100 CAVOK 12/10 Q1027
Conditions at: LPPR (PORTO/PEDRAS RUB, PT) observed 2330 UTC 26 February 2021
Temperature: 12.0°C (54°F)
Dewpoint: 10.0°C (50°F) [RH = 88%]
Pressure (altimeter): 30.32 inches Hg (1027.0 mb)
Winds: from the ENE (70 degrees) at 3 MPH (3 knots; 1.5 m/s)
Visibility: 6 or more miles (10+ km)
Ceiling: ceiling and visibility are OK
Clouds: unknown
Weather: no significant weather observed at this time

METAR text: LPPR 262300Z 03003KT 360V060 CAVOK 13/10 Q1027
Conditions at: LPPR (PORTO/PEDRAS RUB, PT) observed 2300 UTC 26 February 2021
Temperature: 13.0°C (55°F)
Dewpoint: 10.0°C (50°F) [RH = 82%]
Pressure (altimeter): 30.32 inches Hg (1027.0 mb)
Winds: from the NNE (30 degrees) at 3 MPH (3 knots; 1.5 m/s)
Visibility: 6 or more miles (10+ km)
Ceiling: ceiling and visibility are OK
Clouds: unknown
Weather: no significant weather observed at this time

Forecast for: LPPR (PORTO/PEDRAS RUB, PT)
Text: TAF LPPR 262300Z 2700/2724 08008KT CAVOK
Forecast period: 0000 to 1400 UTC 27 February 2021
Forecast type: FROM: standard forecast or significant change
Winds: from the E (80 degrees) at 9 MPH (8 knots; 4.1 m/s)
Visibility: 6 or more miles (10+ km)
Ceiling: unknown
Clouds: missing
Weather: NSW  (no significant weather)
Text: BECMG 2714/2717 34008KT
Forecast period: 1400 to 2000 UTC 27 February 2021
Forecast type: BECOMING: Conditions expected to become as follows by 1700 UTC 27 February 2021
Winds: from the NNW (340 degrees) at 9 MPH (8 knots; 4.1 m/s)
Visibility: 6 or more miles (10+ km)
Ceiling: unknown
Clouds: missing
Weather: NSW  (no significant weather)
Text: BECMG 2720/2722 05005KT
Forecast period: 2000 UTC 27 February 2021 to 0000 UTC 28 February 2021
Forecast type: BECOMING: Conditions expected to become as follows by 2200 UTC 27 February 2021
Winds: from the NE (50 degrees) at 6 MPH (5 knots; 2.6 m/s)
Visibility: 6 or more miles (10+ km)
Ceiling: unknown
Clouds: missing
Weather: NSW  (no significant weather)

 AIRPORT MAP

 RUNWAY INFORMATION
Runway 17 Runway length 11417 ft Runway width 148 ft
Runway elevation 151 ft Runway displaced threshold 984 ft Runway heading 169
Runway 35 Runway length 11417 ft Runway width 148 ft
Runway elevation 226 ft Runway displaced threshold 492 ft Runway heading 349

 AIRPORT FREQUENCIES
Type APP Name APP Frequency 121.1 MHZ
Type ATIS Name ATIS Frequency 124.3 MHZ
Type TWR Name TWR Frequency 118 MHZ

 AIRPORT NEAR NAVIGATION AIDS
Type NDB Name Porto Frequency 367 KHZ
Type NDB Name Porto Frequency 327 KHZ
Type VOR-DME Name Porto Frequency 114100 KHZ